createdAt,value
2023-02-27T00:01:24.230Z,2.30
2023-02-27T00:03:52.087Z,1.85
2023-02-27T00:06:20.384Z,1.25
2023-02-27T00:08:48.334Z,1.38
2023-02-27T00:15:25.429Z,1.40
2023-02-27T00:22:43.597Z,1.88
2023-02-27T00:25:54.230Z,1.50
2023-02-27T00:28:22.969Z,1.25
2023-02-27T00:30:56.586Z,1.38
2023-02-27T00:33:24.520Z,1.27
2023-02-27T00:36:02.419Z,1.10
2023-02-27T00:38:30.691Z,1.35
2023-02-27T00:40:59.544Z,1.38
2023-02-27T00:43:27.505Z,1.30
2023-02-27T00:45:55.646Z,1.38
2023-02-27T00:48:26.612Z,1.25
2023-02-27T00:50:54.770Z,1.20
2023-02-27T01:02:29.122Z,1.10
2023-02-27T01:04:57.091Z,1.50
2023-02-27T01:12:11.407Z,1.83
2023-02-27T01:14:56.499Z,1.73
2023-02-27T01:17:24.924Z,1.60
2023-02-27T01:19:52.598Z,1.60
2023-02-27T01:22:46.624Z,1.60
2023-02-27T01:25:14.447Z,1.85
2023-02-27T01:27:44.005Z,1.60
2023-02-27T01:30:13.018Z,1.52
2023-02-27T01:32:41.245Z,1.88
2023-02-27T01:35:09.324Z,2.00
2023-02-27T01:42:29.488Z,2.10
2023-02-27T01:45:28.066Z,1.63
2023-02-27T01:48:06.933Z,1.17
2023-02-27T01:50:38.341Z,1.02
2023-02-27T01:53:07.726Z,1.70
2023-02-27T02:00:07.192Z,1.92
2023-02-27T02:06:51.337Z,1.60
2023-02-27T02:10:09.573Z,1.20
2023-02-27T02:12:39.498Z,1.33
2023-02-27T02:15:08.452Z,1.15
2023-02-27T02:22:00.161Z,1.33
2023-02-27T02:25:07.207Z,1.67
2023-02-27T02:27:57.673Z,1.30
2023-02-27T02:30:48.594Z,0.85
2023-02-27T02:33:46.436Z,1.10
2023-02-27T02:37:18.086Z,1.10
2023-02-27T02:57:48.321Z,1.63
2023-02-27T03:00:21.607Z,1.60
2023-02-27T03:08:24.999Z,1.80
2023-02-27T03:15:28.597Z,1.50
2023-02-27T03:19:01.012Z,1.50
2023-02-27T03:34:53.831Z,2.20
2023-02-27T03:41:24.452Z,2.40
2023-02-27T03:44:24.643Z,1.30
2023-02-27T03:51:32.081Z,1.10
2023-02-27T03:58:28.566Z,1.50
2023-02-27T04:00:57.237Z,1.35
2023-02-27T04:03:26.095Z,1.73
2023-02-27T04:10:32.586Z,1.02
2023-02-27T04:13:28.848Z,1.45
2023-02-27T04:20:50.314Z,1.42
2023-02-27T04:23:34.964Z,1.90
2023-02-27T04:31:00.807Z,2.20
2023-02-27T04:38:19.791Z,1.80
2023-02-27T04:40:58.527Z,8.77
2023-02-27T04:43:29.130Z,3.65
2023-02-27T04:46:00.398Z,5.85
2023-02-27T04:49:05.572Z,5.68
2023-02-27T04:55:48.815Z,4.25
2023-02-27T04:58:25.382Z,3.40
2023-02-27T05:01:05.742Z,7.00
2023-02-27T05:03:45.881Z,7.07
2023-02-27T05:06:17.930Z,16.95
2023-02-27T05:12:59.278Z,12.65
2023-02-27T05:19:58.360Z,11.88
2023-02-27T05:30:58.157Z,6.00
2023-02-27T05:33:33.703Z,4.72
2023-02-27T05:36:13.393Z,5.05
2023-02-27T05:38:46.549Z,4.97
2023-02-27T05:46:00.139Z,5.30
2023-02-27T05:53:40.868Z,5.70
2023-02-27T05:56:12.734Z,4.35
2023-02-27T06:03:34.702Z,3.08
2023-02-27T06:06:07.746Z,3.50
2023-02-27T06:08:36.299Z,7.47
2023-02-27T06:11:04.562Z,7.20
2023-02-27T06:13:33.128Z,5.13
2023-02-27T06:16:07.736Z,5.20
2023-02-27T06:18:35.646Z,7.28
2023-02-27T06:25:06.555Z,10.05
2023-02-27T06:32:14.929Z,15.13
2023-02-27T06:34:43.175Z,26.67
2023-02-27T06:37:11.446Z,14.27
2023-02-27T06:40:06.488Z,9.07
2023-02-27T06:42:35.033Z,7.85
2023-02-27T06:49:57.250Z,3.10
2023-02-27T06:52:25.898Z,4.75
2023-02-27T06:54:54.032Z,5.97
2023-02-27T06:57:22.469Z,5.95
2023-02-27T06:59:50.461Z,5.15
2023-02-27T07:03:13.749Z,5.80
2023-02-27T07:05:42.640Z,8.00
2023-02-27T07:08:18.808Z,9.05
2023-02-27T07:10:49.988Z,9.98
2023-02-27T07:13:19.749Z,5.70
2023-02-27T07:15:48.122Z,4.83
2023-02-27T07:18:17.601Z,4.90
2023-02-27T07:20:45.649Z,3.70
2023-02-27T07:23:19.807Z,4.35
2023-02-27T07:25:48.662Z,4.38
2023-02-27T07:28:17.651Z,4.38
2023-02-27T07:30:46.674Z,6.20
2023-02-27T07:33:15.371Z,4.13
2023-02-27T07:35:48.281Z,3.08
2023-02-27T07:38:16.786Z,3.58
2023-02-27T07:40:44.932Z,5.53
2023-02-27T07:43:13.729Z,8.25
2023-02-27T07:46:36.866Z,5.80
2023-02-27T07:49:05.806Z,7.35
2023-02-27T07:52:00.245Z,5.53
2023-02-27T07:54:28.876Z,6.45
2023-02-27T07:56:56.764Z,6.75
2023-02-27T07:59:25.343Z,6.07
2023-02-27T08:02:44.182Z,6.40
2023-02-27T08:05:16.213Z,4.72
2023-02-27T08:07:44.997Z,3.90
2023-02-27T08:10:14.244Z,3.65
2023-02-27T08:12:42.515Z,4.40
2023-02-27T08:16:00.630Z,6.22
2023-02-27T08:18:29.275Z,7.50
2023-02-27T08:20:58.345Z,7.30
2023-02-27T08:23:26.580Z,7.00
2023-02-27T08:25:55.014Z,6.25
2023-02-27T08:28:23.311Z,6.70
2023-02-27T08:30:51.846Z,5.88
2023-02-27T08:33:20.060Z,5.88
2023-02-27T08:35:48.548Z,6.13
2023-02-27T08:38:16.699Z,6.25
2023-02-27T08:41:10.754Z,9.07
2023-02-27T08:48:14.577Z,10.45
2023-02-27T08:50:47.104Z,9.90
2023-02-27T08:53:15.914Z,8.63
2023-02-27T09:03:57.643Z,9.32
2023-02-27T09:06:31.007Z,9.10
2023-02-27T09:09:00.401Z,11.38
2023-02-27T09:11:29.615Z,12.55
2023-02-27T09:27:11.804Z,6.15
2023-02-27T09:29:40.329Z,5.47
2023-02-27T09:32:09.567Z,6.07
2023-02-27T09:34:37.931Z,5.63
2023-02-27T09:37:06.801Z,5.32
2023-02-27T09:39:35.021Z,4.95
2023-02-27T09:45:56.647Z,4.88
2023-02-27T09:57:47.190Z,2.30
2023-02-27T10:00:31.068Z,3.25
2023-02-27T10:16:41.533Z,1.40
2023-02-27T10:36:03.415Z,1.70
2023-02-27T10:38:56.984Z,1.13
2023-02-27T10:41:32.148Z,1.50
2023-02-27T10:45:00.283Z,1.00
2023-02-27T10:52:50.349Z,0.65
2023-02-27T10:55:25.358Z,0.95
2023-02-27T10:58:43.190Z,0.77
2023-02-27T11:01:13.136Z,2.93
2023-02-27T11:03:44.093Z,1.75
2023-02-27T11:06:15.094Z,1.33
2023-02-27T11:09:24.158Z,1.40
2023-02-27T11:11:53.687Z,1.02
2023-02-27T11:19:04.675Z,1.05
2023-02-27T11:22:16.292Z,2.10
2023-02-27T11:29:29.798Z,0.70
2023-02-27T11:32:20.434Z,1.10
2023-02-27T11:39:36.789Z,1.48
2023-02-27T11:42:33.053Z,0.70
2023-02-27T11:46:04.342Z,1.02
2023-02-27T11:53:52.894Z,0.50
2023-02-27T12:01:05.437Z,0.75
2023-02-27T12:07:58.445Z,0.90
2023-02-27T12:10:36.444Z,0.85
2023-02-27T12:13:36.821Z,0.60
2023-02-27T12:16:43.476Z,1.83
2023-02-27T12:20:16.754Z,0.60
2023-02-27T12:22:49.119Z,1.17
2023-02-27T12:30:51.997Z,0.88
2023-02-27T12:34:05.740Z,0.80
2023-02-27T12:36:37.466Z,0.98
2023-02-27T12:40:00.893Z,1.23
2023-02-27T12:42:47.219Z,0.65
2023-02-27T12:45:45.139Z,0.80
2023-02-27T12:57:21.788Z,1.37
2023-02-27T13:00:55.635Z,0.95
2023-02-27T13:04:00.243Z,1.00
2023-02-27T13:07:26.838Z,0.90
2023-02-27T13:10:02.130Z,0.90
2023-02-27T13:21:52.143Z,1.00
2023-02-27T13:24:26.812Z,1.10
2023-02-27T13:27:12.868Z,0.95
2023-02-27T13:29:48.062Z,1.00
2023-02-27T13:32:43.051Z,0.88
2023-02-27T13:39:47.756Z,1.50
2023-02-27T13:42:40.525Z,2.05
2023-02-27T13:49:44.243Z,4.53
2023-02-27T13:52:12.462Z,3.55
2023-02-27T13:54:42.323Z,4.03
2023-02-27T13:57:21.982Z,6.97
2023-02-27T14:00:05.551Z,5.07
2023-02-27T14:06:52.751Z,4.00
2023-02-27T14:09:23.404Z,4.20
2023-02-27T14:11:57.424Z,4.43
2023-02-27T14:15:08.211Z,6.63
2023-02-27T14:17:36.811Z,5.30
2023-02-27T14:20:32.185Z,9.43
2023-02-27T14:23:16.063Z,6.32
2023-02-27T14:29:18.854Z,5.03
2023-02-27T14:31:48.518Z,5.22
2023-02-27T14:38:20.850Z,4.00
2023-02-27T14:41:38.328Z,4.45
2023-02-27T14:44:23.860Z,4.40
2023-02-27T14:46:57.269Z,5.28
2023-02-27T14:49:43.175Z,6.35
2023-02-27T14:52:24.743Z,5.72
2023-02-27T14:55:35.568Z,4.32
2023-02-27T14:58:28.133Z,11.75
2023-02-27T15:01:12.017Z,5.20
2023-02-27T15:03:54.580Z,3.75
2023-02-27T15:09:50.366Z,7.32
2023-02-27T15:12:34.816Z,5.80
2023-02-27T15:15:26.692Z,5.05
2023-02-27T15:21:25.163Z,2.40
2023-02-27T15:24:07.267Z,4.15
2023-02-27T15:26:40.291Z,5.63
2023-02-27T15:29:11.701Z,5.88
2023-02-27T15:31:40.470Z,8.90
2023-02-27T15:34:14.574Z,9.00
2023-02-27T15:36:55.859Z,7.32
2023-02-27T15:47:56.817Z,25.63
2023-02-27T15:51:03.619Z,7.47
2023-02-27T15:53:34.415Z,7.10
2023-02-27T15:56:08.060Z,6.67
2023-02-27T15:58:41.354Z,8.63
2023-02-27T16:01:57.533Z,7.90
2023-02-27T16:04:27.019Z,6.22
2023-02-27T16:07:29.503Z,5.70
2023-02-27T16:10:16.550Z,5.97
2023-02-27T16:12:53.071Z,5.97
2023-02-27T16:15:26.765Z,5.72
2023-02-27T16:18:31.298Z,5.60
2023-02-27T16:21:10.790Z,6.38
2023-02-27T16:23:39.440Z,5.97
2023-02-27T16:26:34.347Z,6.43
2023-02-27T16:29:06.518Z,6.10
2023-02-27T16:31:41.062Z,6.35
2023-02-27T16:34:35.557Z,5.80
2023-02-27T16:37:48.506Z,13.77
2023-02-27T16:40:23.071Z,5.85
2023-02-27T16:42:53.523Z,5.78
2023-02-27T16:45:56.776Z,13.50
2023-02-27T16:48:25.788Z,5.80
2023-02-27T16:50:54.097Z,6.60
2023-02-27T16:53:21.956Z,7.97
2023-02-27T16:55:50.333Z,5.82
2023-02-27T16:58:19.220Z,7.00
2023-02-27T17:00:47.717Z,5.97
2023-02-27T17:03:16.025Z,7.00
2023-02-27T17:05:44.422Z,6.47
2023-02-27T17:08:13.304Z,4.60
2023-02-27T17:10:45.026Z,5.18
2023-02-27T17:13:13.369Z,5.45
2023-02-27T17:15:41.785Z,17.43
2023-02-27T17:18:10.175Z,8.02
2023-02-27T17:20:38.652Z,7.45
2023-02-27T17:23:09.867Z,7.60
2023-02-27T17:25:40.763Z,5.53
2023-02-27T17:28:33.834Z,6.75
2023-02-27T17:31:03.188Z,7.80
2023-02-27T17:33:32.225Z,6.07
2023-02-27T17:36:05.588Z,5.45
2023-02-27T17:38:34.241Z,6.90
2023-02-27T17:41:10.618Z,8.52
2023-02-27T17:43:38.764Z,6.57
2023-02-27T17:46:12.447Z,6.95
2023-02-27T17:48:41.106Z,7.05
2023-02-27T17:51:14.385Z,5.65
2023-02-27T17:53:42.890Z,6.90
2023-02-27T17:56:12.827Z,6.07
2023-02-27T17:58:42.135Z,6.10
2023-02-27T18:01:15.397Z,6.80
2023-02-27T18:03:47.878Z,6.22
2023-02-27T18:06:16.973Z,6.70
2023-02-27T18:08:45.602Z,6.10
2023-02-27T18:11:19.020Z,7.18
2023-02-27T18:13:48.091Z,5.97
2023-02-27T18:16:16.914Z,6.00
2023-02-27T18:18:46.186Z,7.23
2023-02-27T18:21:26.622Z,7.20
2023-02-27T18:23:55.425Z,7.05
2023-02-27T18:26:30.746Z,6.82
2023-02-27T18:29:08.365Z,6.28
2023-02-27T18:31:47.267Z,6.40
2023-02-27T18:34:20.640Z,8.82
2023-02-27T18:36:52.522Z,9.68
2023-02-27T18:39:20.889Z,9.82
2023-02-27T18:41:49.151Z,8.07
2023-02-27T18:44:17.148Z,5.93
2023-02-27T18:46:46.694Z,9.90
2023-02-27T18:49:16.979Z,10.32
2023-02-27T18:51:45.685Z,8.15
2023-02-27T18:54:14.839Z,6.70
2023-02-27T18:56:43.315Z,7.63
2023-02-27T18:59:12.586Z,7.28
2023-02-27T19:01:41.347Z,7.30
2023-02-27T19:04:10.069Z,6.93
2023-02-27T19:06:42.653Z,6.55
2023-02-27T19:09:13.101Z,6.28
2023-02-27T19:11:41.637Z,6.10
2023-02-27T19:14:13.662Z,6.70
2023-02-27T19:16:42.751Z,6.53
2023-02-27T19:19:12.213Z,7.13
2023-02-27T19:21:40.972Z,6.33
2023-02-27T19:24:12.340Z,6.60
2023-02-27T19:26:41.225Z,6.15
2023-02-27T19:29:09.115Z,6.50
2023-02-27T19:31:37.367Z,6.82
2023-02-27T19:34:05.699Z,6.88
2023-02-27T19:36:35.203Z,10.18
2023-02-27T19:39:03.199Z,7.07
2023-02-27T19:41:33.604Z,7.25
2023-02-27T19:44:02.162Z,6.82
2023-02-27T19:46:33.561Z,7.07
2023-02-27T19:49:04.910Z,6.32
2023-02-27T19:51:33.728Z,6.20
2023-02-27T19:54:01.641Z,8.07
2023-02-27T19:57:20.560Z,7.13
2023-02-27T19:59:48.480Z,6.47
2023-02-27T20:02:16.738Z,5.65
2023-02-27T20:04:45.822Z,6.32
2023-02-27T20:07:14.595Z,7.10
2023-02-27T20:09:42.620Z,6.68
2023-02-27T20:12:10.858Z,7.55
2023-02-27T20:14:38.890Z,8.52
2023-02-27T20:17:08.394Z,7.95
2023-02-27T20:20:02.295Z,6.60
2023-02-27T20:22:30.561Z,6.18
2023-02-27T20:24:58.568Z,6.90
2023-02-27T20:27:27.808Z,9.05
2023-02-27T20:29:57.717Z,7.85
2023-02-27T20:32:26.254Z,7.47
2023-02-27T20:34:55.839Z,6.93
2023-02-27T20:37:24.403Z,8.05
2023-02-27T20:39:52.188Z,9.25
2023-02-27T20:42:20.614Z,7.95
2023-02-27T20:44:49.437Z,7.70
2023-02-27T20:47:17.739Z,8.88
2023-02-27T20:49:45.967Z,7.80
2023-02-27T20:52:14.546Z,8.13
2023-02-27T20:54:46.086Z,8.10
2023-02-27T20:57:14.599Z,10.25
2023-02-27T20:59:42.544Z,8.25
2023-02-27T21:02:11.796Z,8.60
2023-02-27T21:04:43.519Z,9.07
2023-02-27T21:07:19.148Z,8.05
2023-02-27T21:09:47.518Z,7.35
2023-02-27T21:12:17.333Z,6.85
2023-02-27T21:14:45.687Z,6.88
2023-02-27T21:17:14.327Z,5.80
2023-02-27T21:19:42.445Z,6.03
2023-02-27T21:22:11.677Z,10.60
2023-02-27T21:24:39.824Z,7.22
2023-02-27T21:27:08.175Z,9.48
2023-02-27T21:29:36.739Z,10.57
2023-02-27T21:32:05.314Z,9.75
2023-02-27T21:34:33.492Z,8.32
2023-02-27T21:37:03.473Z,9.60
2023-02-27T21:39:31.582Z,9.00
2023-02-27T21:41:59.994Z,7.43
2023-02-27T21:44:30.078Z,8.98
2023-02-27T21:46:59.793Z,6.80
2023-02-27T21:49:29.861Z,6.35
2023-02-27T21:51:58.149Z,7.00
2023-02-27T21:54:26.138Z,6.03
2023-02-27T21:56:54.183Z,6.82
2023-02-27T21:59:22.169Z,7.22
2023-02-27T22:01:50.881Z,6.85
2023-02-27T22:04:20.527Z,6.20
2023-02-27T22:06:51.103Z,5.45
2023-02-27T22:09:19.132Z,6.43
2023-02-27T22:11:50.070Z,6.50
2023-02-27T22:14:19.148Z,5.78
2023-02-27T22:16:47.486Z,7.20
2023-02-27T22:19:20.228Z,5.70
2023-02-27T22:21:48.857Z,5.65
2023-02-27T22:24:16.818Z,5.88
2023-02-27T22:26:46.157Z,6.57
2023-02-27T22:29:14.404Z,5.72
2023-02-27T22:31:42.900Z,5.70
2023-02-27T22:34:19.024Z,5.80
2023-02-27T22:36:53.045Z,5.75
2023-02-27T22:39:22.275Z,5.97
2023-02-27T22:41:50.769Z,6.57
2023-02-27T22:44:19.017Z,6.78
2023-02-27T22:46:49.429Z,5.93
2023-02-27T22:49:20.960Z,5.93
2023-02-27T22:51:51.228Z,6.28
2023-02-27T22:54:21.446Z,5.70
2023-02-27T22:56:52.014Z,6.03
2023-02-27T22:59:52.488Z,5.80
2023-02-27T23:02:20.725Z,5.90
2023-02-27T23:04:48.429Z,9.75
2023-02-27T23:07:20.105Z,8.65
2023-02-27T23:09:48.033Z,6.90
2023-02-27T23:12:16.472Z,7.13
2023-02-27T23:14:44.379Z,6.40
2023-02-27T23:17:12.455Z,7.18
2023-02-27T23:20:35.761Z,8.27
2023-02-27T23:23:05.888Z,5.97
2023-02-27T23:29:34.384Z,6.18
2023-02-27T23:32:27.616Z,6.07
2023-02-27T23:35:01.230Z,6.97
2023-02-27T23:37:29.034Z,6.22
2023-02-27T23:39:59.207Z,7.25
2023-02-27T23:42:50.475Z,6.80
2023-02-27T23:45:24.931Z,6.28
2023-02-27T23:47:57.063Z,7.47
2023-02-27T23:50:28.870Z,7.13
2023-02-27T23:52:59.301Z,6.68
2023-02-27T23:55:30.483Z,7.00
2023-02-27T23:58:00.442Z,6.47
